Главная страница
METAR-TAF:

METAR-TAF

Аэропорты :

Стокгольм-Бромма

Стокгольм, Швеция

широта: 59-21N, долгота: 017-57E, высота над уровнем моря: 14 м

Текущие метеонаблюдения

Эта сводка был подготовлена 29 минут назад, в 21:20 UTC
Ветер 2 Узел от юго-западный
Температура 3°C
Влажность 81%
Давление 1007 hPa
Видимость 10 км и более

METAR: ESSB 072120Z AUTO 22002KT 9999 OVC090/// 03/M00 Q1007

Время: 23:49 (21:49 UTC)

Прогноз

Эта сводка был подготовлена 4 часа и 19 минут назад, в 17:30 UTC
Прогноз действительный с 07-го 18 UTC до 07-го 21 UTC
Ветер 4 Узел от северо-западный
Видимость 10 км и более
Нет облачности ниже 1500 м, и нет кучево-дождевой облачности

TAF: ESSB 071730Z 0718/0721 31004KT CAVOK

Метеонаблюдения и прогнозы для более 4000 аэропортов (сводки METAR и TAF).

Имеющиеся станции представлены на карте желтыми и красными точками.

Чтобы увидеть название станции, наведите на нее мышь.

Затем щелкните, чтобы увидеть метеонаблюдения и метеопрогнозы.

Управление картой: чтобы увеличить масштаб, щелкните зеленые кнопки с черным крестиком; чтобы уменьшить масштаб, щелкните зеленую кнопку с тире; для просмотра соседних карт щелкайте зеленые стрелки.


METAR-TAF: